sensor_id;sensor_type;location;lat;lon;timestamp;pressure;altitude;pressure_sealevel;temperature;humidity
53262;BME280;39658;51.090;-1.786;2023-05-11T00:01:10;101767.44;;;8.47;100.00
53262;BME280;39658;51.090;-1.786;2023-05-11T00:03:37;101765.75;;;8.46;100.00
53262;BME280;39658;51.090;-1.786;2023-05-11T00:06:04;101754.41;;;8.43;100.00
53262;BME280;39658;51.090;-1.786;2023-05-11T00:08:31;101738.53;;;8.47;100.00
53262;BME280;39658;51.090;-1.786;2023-05-11T00:10:58;101735.00;;;8.48;100.00
53262;BME280;39658;51.090;-1.786;2023-05-11T00:13:27;101730.69;;;8.45;100.00
53262;BME280;39658;51.090;-1.786;2023-05-11T00:15:54;101719.63;;;8.37;100.00
53262;BME280;39658;51.090;-1.786;2023-05-11T00:18:21;101732.50;;;8.43;100.00
53262;BME280;39658;51.090;-1.786;2023-05-11T00:20:48;101726.41;;;8.42;100.00
53262;BME280;39658;51.090;-1.786;2023-05-11T00:23:14;101712.41;;;8.42;100.00
53262;BME280;39658;51.090;-1.786;2023-05-11T00:25:41;101710.66;;;8.42;100.00
53262;BME280;39658;51.090;-1.786;2023-05-11T00:28:08;101706.22;;;8.44;100.00
53262;BME280;39658;51.090;-1.786;2023-05-11T00:30:38;101703.59;;;8.43;100.00
53262;BME280;39658;51.090;-1.786;2023-05-11T00:33:05;101704.47;;;8.43;100.00
53262;BME280;39658;51.090;-1.786;2023-05-11T00:35:32;101695.69;;;8.44;100.00
53262;BME280;39658;51.090;-1.786;2023-05-11T00:37:59;101683.41;;;8.45;100.00
53262;BME280;39658;51.090;-1.786;2023-05-11T00:40:26;101680.72;;;8.47;100.00
53262;BME280;39658;51.090;-1.786;2023-05-11T00:42:52;101677.09;;;8.49;100.00
53262;BME280;39658;51.090;-1.786;2023-05-11T00:45:19;101677.09;;;8.49;100.00
53262;BME280;39658;51.090;-1.786;2023-05-11T00:47:47;101677.09;;;8.49;100.00
53262;BME280;39658;51.090;-1.786;2023-05-11T00:50:14;101677.16;;;8.48;100.00
53262;BME280;39658;51.090;-1.786;2023-05-11T00:52:41;101677.38;;;8.63;100.00
53262;BME280;39658;51.090;-1.786;2023-05-11T00:55:08;101670.75;;;8.55;100.00
53262;BME280;39658;51.090;-1.786;2023-05-11T00:57:37;101677.03;;;8.51;100.00
53262;BME280;39658;51.090;-1.786;2023-05-11T01:00:05;101672.81;;;8.47;100.00
53262;BME280;39658;51.090;-1.786;2023-05-11T01:02:32;101675.44;;;8.47;100.00
53262;BME280;39658;51.090;-1.786;2023-05-11T01:05:00;101677.22;;;8.46;100.00
53262;BME280;39658;51.090;-1.786;2023-05-11T01:07:31;101675.50;;;8.45;100.00
53262;BME280;39658;51.090;-1.786;2023-05-11T01:10:05;101673.75;;;8.46;100.00
53262;BME280;39658;51.090;-1.786;2023-05-11T01:12:41;101658.09;;;8.42;100.00
53262;BME280;39658;51.090;-1.786;2023-05-11T01:15:14;101661.69;;;8.40;100.00
53262;BME280;39658;51.090;-1.786;2023-05-11T01:17:47;101655.66;;;8.38;100.00
53262;BME280;39658;51.090;-1.786;2023-05-11T01:20:20;101660.03;;;8.37;100.00
53262;BME280;39658;51.090;-1.786;2023-05-11T01:23:01;101651.31;;;8.37;100.00
53262;BME280;39658;51.090;-1.786;2023-05-11T01:25:55;101644.19;;;8.39;100.00
53262;BME280;39658;51.090;-1.786;2023-05-11T01:31:26;101643.22;;;8.41;100.00
53262;BME280;39658;51.090;-1.786;2023-05-11T01:34:01;101637.91;;;8.43;100.00
53262;BME280;39658;51.090;-1.786;2023-05-11T01:36:33;101649.22;;;8.45;100.00
53262;BME280;39658;51.090;-1.786;2023-05-11T01:39:04;101642.31;;;8.42;100.00
53262;BME280;39658;51.090;-1.786;2023-05-11T01:41:34;101643.13;;;8.44;100.00
53262;BME280;39658;51.090;-1.786;2023-05-11T01:44:06;101643.13;;;8.44;100.00
53262;BME280;39658;51.090;-1.786;2023-05-11T01:46:36;101641.44;;;8.42;100.00
53262;BME280;39658;51.090;-1.786;2023-05-11T01:49:05;101642.44;;;8.39;100.00
53262;BME280;39658;51.090;-1.786;2023-05-11T01:51:36;101634.56;;;8.39;100.00
53262;BME280;39658;51.090;-1.786;2023-05-11T01:54:05;101632.72;;;8.41;100.00
53262;BME280;39658;51.090;-1.786;2023-05-11T01:56:34;101633.69;;;8.39;100.00
53262;BME280;39658;51.090;-1.786;2023-05-11T01:59:02;101630.16;;;8.40;100.00
53262;BME280;39658;51.090;-1.786;2023-05-11T02:01:29;101625.75;;;8.40;100.00
53262;BME280;39658;51.090;-1.786;2023-05-11T02:03:59;101622.13;;;8.43;100.00
53262;BME280;39658;51.090;-1.786;2023-05-11T02:06:29;101600.25;;;8.44;100.00
53262;BME280;39658;51.090;-1.786;2023-05-11T02:08:57;101602.00;;;8.43;100.00
53262;BME280;39658;51.090;-1.786;2023-05-11T02:11:27;101590.50;;;8.46;100.00
53262;BME280;39658;51.090;-1.786;2023-05-11T02:13:55;101585.97;;;8.50;100.00
53262;BME280;39658;51.090;-1.786;2023-05-11T02:16:24;101584.22;;;8.50;100.00
53262;BME280;39658;51.090;-1.786;2023-05-11T02:18:52;101546.28;;;8.56;100.00
53262;BME280;39658;51.090;-1.786;2023-05-11T02:21:21;101545.50;;;8.54;100.00
53262;BME280;39658;51.090;-1.786;2023-05-11T02:23:50;101528.34;;;8.45;100.00
53262;BME280;39658;51.090;-1.786;2023-05-11T02:26:17;101547.22;;;8.55;100.00
53262;BME280;39658;51.090;-1.786;2023-05-11T02:28:44;101536.41;;;8.61;100.00
53262;BME280;39658;51.090;-1.786;2023-05-11T02:31:15;101540.03;;;8.58;100.00
53262;BME280;39658;51.090;-1.786;2023-05-11T02:33:47;101548.56;;;8.63;100.00
53262;BME280;39658;51.090;-1.786;2023-05-11T02:36:17;101555.59;;;8.63;100.00
53262;BME280;39658;51.090;-1.786;2023-05-11T02:38:46;101560.66;;;8.68;100.00
53262;BME280;39658;51.090;-1.786;2023-05-11T02:41:17;101562.50;;;8.66;100.00
53262;BME280;39658;51.090;-1.786;2023-05-11T02:43:48;101569.44;;;8.67;100.00
53262;BME280;39658;51.090;-1.786;2023-05-11T02:46:19;101574.84;;;8.63;100.00
53262;BME280;39658;51.090;-1.786;2023-05-11T02:48:50;101585.28;;;8.65;100.00
53262;BME280;39658;51.090;-1.786;2023-05-11T02:51:21;101579.25;;;8.63;100.00
53262;BME280;39658;51.090;-1.786;2023-05-11T02:53:53;101574.97;;;8.60;100.00
53262;BME280;39658;51.090;-1.786;2023-05-11T02:56:22;101567.16;;;8.59;100.00
53262;BME280;39658;51.090;-1.786;2023-05-11T02:58:50;101568.09;;;8.58;100.00
53262;BME280;39658;51.090;-1.786;2023-05-11T03:01:17;101567.16;;;8.59;100.00
53262;BME280;39658;51.090;-1.786;2023-05-11T03:03:44;101560.28;;;8.56;100.00
53262;BME280;39658;51.090;-1.786;2023-05-11T03:06:11;101555.81;;;8.58;100.00
53262;BME280;39658;51.090;-1.786;2023-05-11T03:08:38;101556.66;;;8.59;100.00
53262;BME280;39658;51.090;-1.786;2023-05-11T03:11:08;101547.06;;;8.58;100.00
53262;BME280;39658;51.090;-1.786;2023-05-11T03:13:35;101552.97;;;8.63;100.00
53262;BME280;39658;51.090;-1.786;2023-05-11T03:16:03;101559.81;;;8.67;100.00
53262;BME280;39658;51.090;-1.786;2023-05-11T03:18:32;101563.41;;;8.65;100.00
53262;BME280;39658;51.090;-1.786;2023-05-11T03:20:59;101571.38;;;8.63;100.00
53262;BME280;39658;51.090;-1.786;2023-05-11T03:23:27;101569.72;;;8.60;100.00
53262;BME280;39658;51.090;-1.786;2023-05-11T03:25:55;101568.81;;;8.61;100.00
53262;BME280;39658;51.090;-1.786;2023-05-11T03:28:24;101577.53;;;8.62;100.00
53262;BME280;39658;51.090;-1.786;2023-05-11T03:30:53;101579.25;;;8.63;100.00
53262;BME280;39658;51.090;-1.786;2023-05-11T03:33:20;101574.00;;;8.63;100.00
53262;BME280;39658;51.090;-1.786;2023-05-11T03:35:48;101575.84;;;8.61;100.00
53262;BME280;39658;51.090;-1.786;2023-05-11T03:38:17;101572.41;;;8.59;100.00
53262;BME280;39658;51.090;-1.786;2023-05-11T03:40:46;101560.22;;;8.58;100.00
53262;BME280;39658;51.090;-1.786;2023-05-11T03:43:15;101553.09;;;8.60;100.00
53262;BME280;39658;51.090;-1.786;2023-05-11T03:45:45;101556.72;;;8.57;100.00
53262;BME280;39658;51.090;-1.786;2023-05-11T03:48:14;101566.31;;;8.58;100.00
53262;BME280;39658;51.090;-1.786;2023-05-11T03:50:42;101560.16;;;8.59;100.00
53262;BME280;39658;51.090;-1.786;2023-05-11T03:53:09;101557.66;;;8.56;100.00
53262;BME280;39658;51.090;-1.786;2023-05-11T03:55:37;101561.91;;;8.59;100.00
53262;BME280;39658;51.090;-1.786;2023-05-11T03:58:05;101555.03;;;8.56;100.00
53262;BME280;39658;51.090;-1.786;2023-05-11T04:00:35;101547.16;;;8.56;100.00
53262;BME280;39658;51.090;-1.786;2023-05-11T04:03:05;101549.84;;;8.55;100.00
53262;BME280;39658;51.090;-1.786;2023-05-11T04:05:32;101541.16;;;8.53;100.00
53262;BME280;39658;51.090;-1.786;2023-05-11T04:07:59;101541.16;;;8.53;100.00
53262;BME280;39658;51.090;-1.786;2023-05-11T04:10:26;101541.16;;;8.53;100.00
53262;BME280;39658;51.090;-1.786;2023-05-11T04:12:52;101542.03;;;8.53;100.00
53262;BME280;39658;51.090;-1.786;2023-05-11T04:15:19;101528.00;;;8.53;100.00
53262;BME280;39658;51.090;-1.786;2023-05-11T04:17:46;101526.13;;;8.56;100.00
53262;BME280;39658;51.090;-1.786;2023-05-11T04:20:15;101527.03;;;8.55;100.00
53262;BME280;39658;51.090;-1.786;2023-05-11T04:22:41;101518.28;;;8.55;100.00
53262;BME280;39658;51.090;-1.786;2023-05-11T04:25:08;101509.41;;;8.57;100.00
53262;BME280;39658;51.090;-1.786;2023-05-11T04:27:35;101501.72;;;8.53;100.00
53262;BME280;39658;51.090;-1.786;2023-05-11T04:30:03;101498.13;;;8.55;100.00
53262;BME280;39658;51.090;-1.786;2023-05-11T04:32:29;101487.66;;;8.54;100.00
53262;BME280;39658;51.090;-1.786;2023-05-11T04:34:56;101478.00;;;8.54;100.00
53262;BME280;39658;51.090;-1.786;2023-05-11T04:37:24;101469.00;;;8.60;100.00
53262;BME280;39658;51.090;-1.786;2023-05-11T04:39:51;101469.97;;;8.57;100.00
53262;BME280;39658;51.090;-1.786;2023-05-11T04:42:18;101455.22;;;8.55;100.00
53262;BME280;39658;51.090;-1.786;2023-05-11T04:44:44;101456.97;;;8.54;100.00
53262;BME280;39658;51.090;-1.786;2023-05-11T04:47:11;101452.59;;;8.55;100.00
53262;BME280;39658;51.090;-1.786;2023-05-11T04:49:38;101448.09;;;8.57;100.00
53262;BME280;39658;51.090;-1.786;2023-05-11T04:52:05;101441.13;;;8.56;100.00
53262;BME280;39658;51.090;-1.786;2023-05-11T04:54:33;101435.94;;;8.54;100.00
53262;BME280;39658;51.090;-1.786;2023-05-11T04:57:01;101429.78;;;8.55;100.00
53262;BME280;39658;51.090;-1.786;2023-05-11T04:59:27;101426.94;;;8.60;100.00
53262;BME280;39658;51.090;-1.786;2023-05-11T05:01:54;101425.16;;;8.60;100.00
53262;BME280;39658;51.090;-1.786;2023-05-11T05:04:21;101413.56;;;8.65;100.00
53262;BME280;39658;51.090;-1.786;2023-05-11T05:06:47;101416.97;;;8.67;100.00
53262;BME280;39658;51.090;-1.786;2023-05-11T05:09:14;101414.28;;;8.68;100.00
53262;BME280;39658;51.090;-1.786;2023-05-11T05:11:42;101408.09;;;8.69;100.00
53262;BME280;39658;51.090;-1.786;2023-05-11T05:14:09;101410.66;;;8.71;100.00
53262;BME280;39658;51.090;-1.786;2023-05-11T05:16:36;101418.41;;;8.74;100.00
53262;BME280;39658;51.090;-1.786;2023-05-11T05:19:03;101416.53;;;8.76;100.00
53262;BME280;39658;51.090;-1.786;2023-05-11T05:21:29;101425.94;;;8.82;100.00
53262;BME280;39658;51.090;-1.786;2023-05-11T05:23:56;101429.41;;;8.82;100.00
53262;BME280;39658;51.090;-1.786;2023-05-11T05:26:23;101431.03;;;8.85;100.00
53262;BME280;39658;51.090;-1.786;2023-05-11T05:28:51;101442.19;;;8.90;100.00
53262;BME280;39658;51.090;-1.786;2023-05-11T05:31:18;101445.69;;;8.90;100.00
53262;BME280;39658;51.090;-1.786;2023-05-11T05:33:45;101453.28;;;8.96;100.00
53262;BME280;39658;51.090;-1.786;2023-05-11T05:36:11;101457.69;;;8.96;100.00
53262;BME280;39658;51.090;-1.786;2023-05-11T05:38:38;101464.59;;;8.98;100.00
53262;BME280;39658;51.090;-1.786;2023-05-11T05:41:05;101470.69;;;8.99;100.00
53262;BME280;39658;51.090;-1.786;2023-05-11T05:43:31;101469.53;;;9.05;100.00
53262;BME280;39658;51.090;-1.786;2023-05-11T05:46:00;101472.66;;;9.13;100.00
53262;BME280;39658;51.090;-1.786;2023-05-11T05:48:26;101480.47;;;9.14;100.00
53262;BME280;39658;51.090;-1.786;2023-05-11T05:50:53;101484.91;;;9.14;100.00
53262;BME280;39658;51.090;-1.786;2023-05-11T05:53:20;101491.63;;;9.20;100.00
53262;BME280;39658;51.090;-1.786;2023-05-11T05:55:47;101499.38;;;9.23;100.00
53262;BME280;39658;51.090;-1.786;2023-05-11T05:58:13;101509.53;;;9.30;100.00
53262;BME280;39658;51.090;-1.786;2023-05-11T06:00:40;101516.44;;;9.33;100.00
53262;BME280;39658;51.090;-1.786;2023-05-11T06:03:08;101521.56;;;9.36;100.00
53262;BME280;39658;51.090;-1.786;2023-05-11T06:05:35;101531.00;;;9.40;100.00
53262;BME280;39658;51.090;-1.786;2023-05-11T06:08:02;101536.91;;;9.45;100.00
53262;BME280;39658;51.090;-1.786;2023-05-11T06:10:29;101548.19;;;9.47;100.00
53262;BME280;39658;51.090;-1.786;2023-05-11T06:12:56;101546.63;;;9.62;100.00
53262;BME280;39658;51.090;-1.786;2023-05-11T06:15:22;101556.16;;;9.65;100.00
53262;BME280;39658;51.090;-1.786;2023-05-11T06:17:49;101575.22;;;9.70;100.00
53262;BME280;39658;51.090;-1.786;2023-05-11T06:20:17;101590.47;;;9.81;100.00
53262;BME280;39658;51.090;-1.786;2023-05-11T06:22:44;101604.03;;;9.91;100.00
53262;BME280;39658;51.090;-1.786;2023-05-11T06:25:11;101616.91;;;9.97;100.00
53262;BME280;39658;51.090;-1.786;2023-05-11T06:27:37;101632.88;;;10.11;100.00
53262;BME280;39658;51.090;-1.786;2023-05-11T06:30:05;101649.75;;;10.26;100.00
53262;BME280;39658;51.090;-1.786;2023-05-11T06:32:32;101666.03;;;10.34;100.00
53262;BME280;39658;51.090;-1.786;2023-05-11T06:34:59;101693.13;;;10.38;100.00
53262;BME280;39658;51.090;-1.786;2023-05-11T06:37:29;101725.38;;;10.43;100.00
53262;BME280;39658;51.090;-1.786;2023-05-11T06:39:57;101747.25;;;10.45;100.00
53262;BME280;39658;51.090;-1.786;2023-05-11T06:42:23;101753.47;;;10.62;100.00
53262;BME280;39658;51.090;-1.786;2023-05-11T06:44:50;101781.22;;;10.69;100.00
53262;BME280;39658;51.090;-1.786;2023-05-11T06:47:17;101797.72;;;10.74;100.00
53262;BME280;39658;51.090;-1.786;2023-05-11T06:49:44;101812.22;;;10.83;100.00
53262;BME280;39658;51.090;-1.786;2023-05-11T06:52:10;101835.88;;;10.84;100.00
53262;BME280;39658;51.090;-1.786;2023-05-11T06:54:39;101849.03;;;11.03;100.00
53262;BME280;39658;51.090;-1.786;2023-05-11T06:57:05;101870.84;;;11.07;100.00
53262;BME280;39658;51.090;-1.786;2023-05-11T06:59:32;101882.44;;;11.22;100.00
53262;BME280;39658;51.090;-1.786;2023-05-11T07:01:59;101878.75;;;11.42;100.00
53262;BME280;39658;51.090;-1.786;2023-05-11T07:04:25;101899.41;;;11.51;100.00
53262;BME280;39658;51.090;-1.786;2023-05-11T07:06:54;101920.94;;;11.61;100.00
53262;BME280;39658;51.090;-1.786;2023-05-11T07:09:20;101936.00;;;11.76;100.00
53262;BME280;39658;51.090;-1.786;2023-05-11T07:11:49;101967.72;;;11.76;100.00
53262;BME280;39658;51.090;-1.786;2023-05-11T07:14:16;102003.59;;;11.80;100.00
53262;BME280;39658;51.090;-1.786;2023-05-11T07:16:43;102010.78;;;11.96;100.00
53262;BME280;39658;51.090;-1.786;2023-05-11T07:19:10;102018.28;;;12.21;100.00
53262;BME280;39658;51.090;-1.786;2023-05-11T07:21:37;102019.28;;;12.36;100.00
53262;BME280;39658;51.090;-1.786;2023-05-11T07:24:05;102034.19;;;12.70;100.00
53262;BME280;39658;51.090;-1.786;2023-05-11T07:26:31;102055.84;;;12.79;100.00
53262;BME280;39658;51.090;-1.786;2023-05-11T07:29:00;102061.56;;;12.87;100.00
53262;BME280;39658;51.090;-1.786;2023-05-11T07:31:26;102082.47;;;12.75;100.00
53262;BME280;39658;51.090;-1.786;2023-05-11T07:33:54;102078.78;;;12.78;100.00
53262;BME280;39658;51.090;-1.786;2023-05-11T07:36:21;102078.00;;;12.76;100.00
53262;BME280;39658;51.090;-1.786;2023-05-11T07:38:48;102072.56;;;12.95;100.00
53262;BME280;39658;51.090;-1.786;2023-05-11T07:41:15;102076.28;;;13.08;100.00
53262;BME280;39658;51.090;-1.786;2023-05-11T07:43:42;102073.53;;;13.26;100.00
53262;BME280;39658;51.090;-1.786;2023-05-11T07:46:10;102070.88;;;13.58;100.00
53262;BME280;39658;51.090;-1.786;2023-05-11T07:48:37;102062.84;;;13.59;100.00
53262;BME280;39658;51.090;-1.786;2023-05-11T07:51:04;102056.88;;;13.56;100.00
53262;BME280;39658;51.090;-1.786;2023-05-11T07:53:31;102057.81;;;13.55;100.00
53262;BME280;39658;51.090;-1.786;2023-05-11T07:55:58;102053.38;;;13.55;100.00
53262;BME280;39658;51.090;-1.786;2023-05-11T07:58:25;102055.84;;;13.58;100.00
53262;BME280;39658;51.090;-1.786;2023-05-11T08:00:52;102048.00;;;13.57;100.00
53262;BME280;39658;51.090;-1.786;2023-05-11T08:03:20;102047.03;;;13.58;100.00
53262;BME280;39658;51.090;-1.786;2023-05-11T08:05:47;102057.63;;;13.74;100.00
53262;BME280;39658;51.090;-1.786;2023-05-11T08:08:14;102047.59;;;13.79;100.00
53262;BME280;39658;51.090;-1.786;2023-05-11T08:10:41;102026.38;;;13.79;100.00
53262;BME280;39658;51.090;-1.786;2023-05-11T08:13:07;102025.09;;;13.86;100.00
53262;BME280;39658;51.090;-1.786;2023-05-11T08:15:34;102002.88;;;13.73;100.00
53262;BME280;39658;51.090;-1.786;2023-05-11T08:18:01;101999.94;;;13.63;100.00
53262;BME280;39658;51.090;-1.786;2023-05-11T08:20:29;102006.66;;;13.69;100.00
53262;BME280;39658;51.090;-1.786;2023-05-11T08:22:56;102015.13;;;13.75;100.00
53262;BME280;39658;51.090;-1.786;2023-05-11T08:25:23;102008.00;;;13.76;100.00
53262;BME280;39658;51.090;-1.786;2023-05-11T08:27:50;102005.81;;;13.98;100.00
53262;BME280;39658;51.090;-1.786;2023-05-11T08:30:17;102013.03;;;14.11;100.00
53262;BME280;39658;51.090;-1.786;2023-05-11T08:32:43;102001.94;;;14.18;100.00
53262;BME280;39658;51.090;-1.786;2023-05-11T08:35:11;101973.50;;;14.35;100.00
53262;BME280;39658;51.090;-1.786;2023-05-11T08:37:40;101972.66;;;14.49;100.00
53262;BME280;39658;51.090;-1.786;2023-05-11T08:40:09;101962.16;;;14.33;100.00
53262;BME280;39658;51.090;-1.786;2023-05-11T08:42:39;101957.13;;;14.28;100.00
53262;BME280;39658;51.090;-1.786;2023-05-11T08:45:06;101982.13;;;14.39;100.00
53262;BME280;39658;51.090;-1.786;2023-05-11T08:47:34;101979.47;;;14.39;100.00
53262;BME280;39658;51.090;-1.786;2023-05-11T08:50:01;101997.09;;;14.40;100.00
53262;BME280;39658;51.090;-1.786;2023-05-11T08:52:29;101989.25;;;14.67;100.00
53262;BME280;39658;51.090;-1.786;2023-05-11T08:54:57;101971.41;;;15.91;100.00
53262;BME280;39658;51.090;-1.786;2023-05-11T08:57:25;101892.09;;;16.96;100.00
53262;BME280;39658;51.090;-1.786;2023-05-11T08:59:54;101660.00;;;17.89;100.00
53262;BME280;39658;51.090;-1.786;2023-05-11T09:02:22;101443.78;;;18.53;100.00
53262;BME280;39658;51.090;-1.786;2023-05-11T09:04:50;101367.22;;;18.63;100.00
53262;BME280;39658;51.090;-1.786;2023-05-11T09:07:18;101334.38;;;18.12;100.00
53262;BME280;39658;51.090;-1.786;2023-05-11T09:09:45;101385.09;;;18.72;100.00
53262;BME280;39658;51.090;-1.786;2023-05-11T09:12:14;101335.31;;;18.71;100.00
53262;BME280;39658;51.090;-1.786;2023-05-11T09:14:41;101300.19;;;17.96;100.00
53262;BME280;39658;51.090;-1.786;2023-05-11T09:17:08;101280.72;;;17.22;100.00
53262;BME280;39658;51.090;-1.786;2023-05-11T09:19:35;101318.16;;;16.67;100.00
53262;BME280;39658;51.090;-1.786;2023-05-11T09:22:03;101324.66;;;16.86;100.00
53262;BME280;39658;51.090;-1.786;2023-05-11T09:24:30;101338.88;;;18.21;100.00
53262;BME280;39658;51.090;-1.786;2023-05-11T09:27:05;101329.44;;;19.16;100.00
53262;BME280;39658;51.090;-1.786;2023-05-11T09:29:34;101246.81;;;19.61;100.00
53262;BME280;39658;51.090;-1.786;2023-05-11T09:32:01;101207.13;;;19.94;100.00
53262;BME280;39658;51.090;-1.786;2023-05-11T09:34:28;101217.31;;;20.26;100.00
53262;BME280;39658;51.090;-1.786;2023-05-11T09:36:55;100853.47;;;20.57;100.00
53262;BME280;39658;51.090;-1.786;2023-05-11T09:39:32;100688.72;;;20.86;100.00
53262;BME280;39658;51.090;-1.786;2023-05-11T09:42:13;100750.66;;;20.50;100.00
53262;BME280;39658;51.090;-1.786;2023-05-11T09:44:41;100763.59;;;20.79;100.00
53262;BME280;39658;51.090;-1.786;2023-05-11T09:47:12;100789.38;;;20.05;100.00
53262;BME280;39658;51.090;-1.786;2023-05-11T09:49:39;100793.13;;;19.07;100.00
53262;BME280;39658;51.090;-1.786;2023-05-11T09:52:08;100764.28;;;18.39;100.00
53262;BME280;39658;51.090;-1.786;2023-05-11T09:54:46;100749.50;;;17.61;100.00
53262;BME280;39658;51.090;-1.786;2023-05-11T09:57:24;100807.72;;;16.89;100.00
53262;BME280;39658;51.090;-1.786;2023-05-11T09:59:53;100873.44;;;16.28;100.00
53262;BME280;39658;51.090;-1.786;2023-05-11T10:02:22;100878.53;;;15.58;100.00
53262;BME280;39658;51.090;-1.786;2023-05-11T10:04:50;100795.97;;;15.08;100.00
53262;BME280;39658;51.090;-1.786;2023-05-11T10:07:25;100984.53;;;14.74;100.00
53262;BME280;39658;51.090;-1.786;2023-05-11T10:09:52;101147.56;;;14.47;100.00
53262;BME280;39658;51.090;-1.786;2023-05-11T10:12:21;101248.28;;;14.25;100.00
53262;BME280;39658;51.090;-1.786;2023-05-11T10:14:52;101394.16;;;14.12;100.00
53262;BME280;39658;51.090;-1.786;2023-05-11T10:17:20;101431.28;;;13.99;100.00
53262;BME280;39658;51.090;-1.786;2023-05-11T10:19:48;101451.31;;;13.90;100.00
53262;BME280;39658;51.090;-1.786;2023-05-11T10:22:15;101457.13;;;13.82;100.00
53262;BME280;39658;51.090;-1.786;2023-05-11T10:24:41;101454.69;;;13.79;100.00
53262;BME280;39658;51.090;-1.786;2023-05-11T10:27:10;101461.81;;;13.79;100.00
53262;BME280;39658;51.090;-1.786;2023-05-11T10:29:37;101469.66;;;13.80;100.00
53262;BME280;39658;51.090;-1.786;2023-05-11T10:32:06;101467.75;;;13.82;100.00
53262;BME280;39658;51.090;-1.786;2023-05-11T10:34:33;101476.47;;;13.85;100.00
53262;BME280;39658;51.090;-1.786;2023-05-11T10:37:00;101475.78;;;13.81;100.00
53262;BME280;39658;51.090;-1.786;2023-05-11T10:39:28;101484.50;;;13.83;100.00
53262;BME280;39658;51.090;-1.786;2023-05-11T10:42:19;101479.84;;;13.87;100.00
53262;BME280;39658;51.090;-1.786;2023-05-11T10:44:59;101488.88;;;14.10;100.00
53262;BME280;39658;51.090;-1.786;2023-05-11T10:47:58;101484.34;;;14.25;100.00
53262;BME280;39658;51.090;-1.786;2023-05-11T10:56:41;101478.06;;;15.01;100.00
53262;BME280;39658;51.090;-1.786;2023-05-11T10:59:28;101470.19;;;15.24;100.00
53262;BME280;39658;51.090;-1.786;2023-05-11T11:02:03;101466.84;;;15.33;100.00
53262;BME280;39658;51.090;-1.786;2023-05-11T11:04:45;101461.50;;;15.46;100.00
53262;BME280;39658;51.090;-1.786;2023-05-11T11:07:13;101440.38;;;15.56;100.00
53262;BME280;39658;51.090;-1.786;2023-05-11T11:09:50;101409.53;;;15.77;100.00
53262;BME280;39658;51.090;-1.786;2023-05-11T11:12:18;101405.91;;;15.78;100.00
53262;BME280;39658;51.090;-1.786;2023-05-11T11:14:58;101358.91;;;15.32;100.00
53262;BME280;39658;51.090;-1.786;2023-05-11T11:17:26;101332.19;;;15.22;100.00
53262;BME280;39658;51.090;-1.786;2023-05-11T11:19:57;101368.19;;;15.38;100.00
53262;BME280;39658;51.090;-1.786;2023-05-11T11:22:44;101304.41;;;15.15;100.00
53262;BME280;39658;51.090;-1.786;2023-05-11T11:25:13;101309.38;;;15.31;100.00
53262;BME280;39658;51.090;-1.786;2023-05-11T11:27:54;101311.69;;;15.47;100.00
53262;BME280;39658;51.090;-1.786;2023-05-11T11:30:23;101327.91;;;15.55;100.00
53262;BME280;39658;51.090;-1.786;2023-05-11T11:32:52;101311.84;;;15.68;100.00
53262;BME280;39658;51.090;-1.786;2023-05-11T11:35:45;101305.69;;;16.24;100.00
53262;BME280;39658;51.090;-1.786;2023-05-11T11:38:14;101310.91;;;17.23;100.00
53262;BME280;39658;51.090;-1.786;2023-05-11T11:40:43;101262.72;;;17.67;100.00
53262;BME280;39658;51.090;-1.786;2023-05-11T11:43:11;101254.22;;;17.52;100.00
53262;BME280;39658;51.090;-1.786;2023-05-11T11:45:39;101252.91;;;17.46;100.00
53262;BME280;39658;51.090;-1.786;2023-05-11T11:48:29;101229.09;;;17.14;100.00
53262;BME280;39658;51.090;-1.786;2023-05-11T11:51:03;101232.50;;;17.26;100.00
53262;BME280;39658;51.090;-1.786;2023-05-11T11:54:03;101251.84;;;17.58;100.00
53262;BME280;39658;51.090;-1.786;2023-05-11T11:56:42;101241.50;;;17.96;100.00
53262;BME280;39658;51.090;-1.786;2023-05-11T11:59:10;101200.06;;;17.92;100.00
53262;BME280;39658;51.090;-1.786;2023-05-11T12:01:40;101125.69;;;17.48;100.00
53262;BME280;39658;51.090;-1.786;2023-05-11T12:04:16;101110.13;;;17.44;100.00
53262;BME280;39658;51.090;-1.786;2023-05-11T12:06:55;101191.22;;;17.51;100.00
53262;BME280;39658;51.090;-1.786;2023-05-11T12:09:22;101169.06;;;17.19;100.00
53262;BME280;39658;51.090;-1.786;2023-05-11T12:11:49;101211.69;;;17.19;100.00
53262;BME280;39658;51.090;-1.786;2023-05-11T12:14:17;101087.00;;;16.82;100.00
53262;BME280;39658;51.090;-1.786;2023-05-11T12:16:59;101108.94;;;16.86;100.00
53262;BME280;39658;51.090;-1.786;2023-05-11T12:19:26;101161.28;;;16.97;100.00
53262;BME280;39658;51.090;-1.786;2023-05-11T12:21:56;101173.84;;;16.95;100.00
53262;BME280;39658;51.090;-1.786;2023-05-11T12:24:23;101128.97;;;16.90;100.00
53262;BME280;39658;51.090;-1.786;2023-05-11T12:26:54;101064.81;;;16.72;100.00
53262;BME280;39658;51.090;-1.786;2023-05-11T12:29:21;101058.28;;;16.55;100.00
53262;BME280;39658;51.090;-1.786;2023-05-11T12:31:48;101046.66;;;16.25;100.00
53262;BME280;39658;51.090;-1.786;2023-05-11T12:34:15;100986.16;;;16.06;100.00
53262;BME280;39658;51.090;-1.786;2023-05-11T12:36:43;100975.53;;;16.06;100.00
53262;BME280;39658;51.090;-1.786;2023-05-11T12:39:17;101015.03;;;16.11;100.00
53262;BME280;39658;51.090;-1.786;2023-05-11T12:41:46;100992.38;;;16.17;100.00
53262;BME280;39658;51.090;-1.786;2023-05-11T12:44:14;100981.63;;;16.18;100.00
53262;BME280;39658;51.090;-1.786;2023-05-11T12:46:41;101041.50;;;16.33;100.00
53262;BME280;39658;51.090;-1.786;2023-05-11T12:49:09;101041.16;;;16.48;100.00
53262;BME280;39658;51.090;-1.786;2023-05-11T12:51:48;101077.34;;;16.81;100.00
53262;BME280;39658;51.090;-1.786;2023-05-11T12:54:28;101025.84;;;16.92;100.00